This is the latest recevied weather packets stored in our database for station/object IZ1RFL-3. If no packets are shown the sender has not sent any weather packets the latest 1 day(s).
| Time | Temp. | Humidity | Pressure | Rain* | Wind** | Luminosity | Snow |
|---|---|---|---|---|---|---|---|
| 1778074267 | 22.22° C | 45% | 1007.5 hPa | - | - | - | - |
| 1778073367 | 21.67° C | 51% | 1007.5 hPa | - | - | - | - |
| 1778072467 | 22.78° C | 49% | 1007.7 hPa | - | - | - | - |
| 1778071567 | 22.78° C | 47% | 1007.8 hPa | - | - | - | - |
| 1778070667 | 22.22° C | 51% | 1007.8 hPa | - | - | - | - |
| 1778068867 | 23.33° C | 48% | 1008 hPa | - | - | - | - |
| 1778067067 | 21.11° C | 54% | 1008.1 hPa | - | - | - | - |
| 1778065267 | 18.89° C | 57% | 1008.4 hPa | - | - | - | - |
| 1778063467 | 20.56° C | 55% | 1008.7 hPa | - | - | - | - |
| 1778060767 | 18.33° C | 60% | 1009 hPa | - | - | - | - |
| 1778058967 | 17.78° C | 60% | 1009.1 hPa | - | - | - | - |
| 1778055367 | 16.11° C | 75% | 1009.2 hPa | - | - | - | - |
| 1778053567 | 14.44° C | 80% | 1009.3 hPa | - | - | - | - |
| 1778043666 | 12.78° C | 89% | 1009.7 hPa | - | - | - | - |
| 1778038266 | 12.78° C | 87% | 1010.6 hPa | - | - | - | - |
| 1778037366 | 12.78° C | 86% | 1010.6 hPa | - | - | - | - |
| 1778036466 | 12.78° C | 87% | 1010.6 hPa | - | - | - | - |
| 1778034666 | 12.78° C | 87% | 1011 hPa | - | - | - | - |
| 1778033766 | 12.78° C | 88% | 1011.3 hPa | - | - | - | - |
| 1778031066 | 12.78° C | 87% | 1011.1 hPa | - | - | - | - |
| 1778030166 | 12.78° C | 87% | 1011.5 hPa | - | - | - | - |
| 1778029266 | 12.78° C | 86% | 1011.8 hPa | - | - | - | - |
| 1778028366 | 12.78° C | 86% | 1012 hPa | - | - | - | - |
| 1778027466 | 13.33° C | 85% | 1012.3 hPa | - | - | - | - |
| 1777991466 | 15.56° C | 69% | 1013.9 hPa | - | - | - | - |
* Rain since midnight (hover to see other rain measurements)
** Current wind speed in m/s (hover to see current wind gust speed)